createdAt,value
2018-06-15T00:01:24.185Z,85.20
2018-06-15T00:03:52.703Z,85.10
2018-06-15T00:06:21.240Z,85.38
2018-06-15T00:08:49.708Z,85.39
2018-06-15T00:11:18.190Z,85.24
2018-06-15T00:13:46.624Z,84.91
2018-06-15T00:16:15.056Z,85.26
2018-06-15T00:18:43.689Z,84.97
2018-06-15T00:21:12.229Z,85.40
2018-06-15T00:23:41.093Z,85.42
2018-06-15T00:26:09.605Z,85.15
2018-06-15T00:28:38.087Z,85.23
2018-06-15T00:31:06.582Z,84.92
2018-06-15T00:33:35.138Z,84.93
2018-06-15T00:36:03.756Z,85.25
2018-06-15T00:38:32.209Z,85.03
2018-06-15T00:41:00.807Z,84.89
2018-06-15T00:43:29.269Z,85.03
2018-06-15T00:45:57.765Z,85.36
2018-06-15T00:48:26.355Z,85.27
2018-06-15T00:50:54.834Z,85.12
2018-06-15T00:53:23.334Z,85.12
2018-06-15T00:55:51.778Z,85.11
2018-06-15T00:58:20.201Z,84.92
2018-06-15T01:00:48.669Z,84.98
2018-06-15T01:03:17.157Z,85.55
2018-06-15T01:05:48.797Z,85.48
2018-06-15T01:08:17.259Z,85.04
2018-06-15T01:10:45.772Z,85.22
2018-06-15T01:13:14.225Z,85.03
2018-06-15T01:15:42.726Z,84.96
2018-06-15T01:18:11.202Z,84.92
2018-06-15T01:20:39.745Z,85.13
2018-06-15T01:23:08.259Z,85.17
2018-06-15T01:25:37.062Z,85.07
2018-06-15T01:28:05.489Z,84.79
2018-06-15T01:30:34.039Z,84.97
2018-06-15T01:33:02.553Z,85.07
2018-06-15T01:35:31.074Z,85.60
2018-06-15T01:37:59.730Z,85.13
2018-06-15T01:40:28.268Z,85.52
2018-06-15T01:42:56.704Z,85.42
2018-06-15T01:45:25.320Z,85.06
2018-06-15T01:47:53.797Z,85.25
2018-06-15T01:50:22.321Z,85.37
2018-06-15T01:52:50.972Z,85.76
2018-06-15T01:55:31.528Z,85.43
2018-06-15T01:58:00.043Z,85.35
2018-06-15T02:00:28.623Z,85.06
2018-06-15T02:02:57.096Z,84.98
2018-06-15T02:05:25.628Z,85.25
2018-06-15T02:07:54.068Z,84.55
2018-06-15T02:10:22.854Z,84.37
2018-06-15T02:12:51.365Z,84.54
2018-06-15T02:15:19.927Z,84.35
2018-06-15T02:17:48.378Z,84.38
2018-06-15T02:20:16.878Z,83.94
2018-06-15T02:22:45.284Z,84.22
2018-06-15T02:25:13.698Z,84.25
2018-06-15T02:27:42.201Z,84.06
2018-06-15T02:30:10.750Z,84.75
2018-06-15T02:32:39.278Z,84.70
2018-06-15T02:35:07.762Z,85.30
2018-06-15T02:37:36.256Z,85.58
2018-06-15T02:40:04.896Z,85.86
2018-06-15T02:42:33.818Z,86.85
2018-06-15T02:45:02.311Z,87.11
2018-06-15T02:47:30.881Z,87.62
2018-06-15T02:49:59.361Z,87.20
2018-06-15T02:52:27.834Z,87.40
2018-06-15T02:54:56.539Z,87.36
2018-06-15T02:57:25.057Z,87.92
2018-06-15T02:59:53.702Z,87.36
2018-06-15T03:02:22.177Z,87.68
2018-06-15T03:04:50.628Z,87.16
2018-06-15T03:07:19.193Z,86.93
2018-06-15T03:09:47.845Z,87.01
2018-06-15T03:12:17.043Z,87.68
2018-06-15T03:14:45.569Z,87.45
2018-06-15T03:17:13.994Z,87.89
2018-06-15T03:19:42.781Z,87.76
2018-06-15T03:22:11.424Z,87.88
2018-06-15T03:24:39.944Z,87.61
2018-06-15T03:27:29.958Z,87.89
2018-06-15T03:29:58.624Z,87.30
2018-06-15T03:32:27.113Z,87.02
2018-06-15T03:34:55.590Z,87.33
2018-06-15T03:37:24.051Z,86.81
2018-06-15T03:39:52.515Z,86.94
2018-06-15T03:42:21.158Z,87.17
2018-06-15T03:44:49.612Z,87.22
2018-06-15T03:47:18.094Z,87.58
2018-06-15T03:49:46.580Z,87.91
2018-06-15T03:52:15.061Z,87.80
2018-06-15T03:54:43.593Z,88.11
2018-06-15T03:57:12.188Z,88.12
2018-06-15T03:59:47.776Z,87.64
2018-06-15T04:02:54.152Z,87.52
2018-06-15T04:05:22.649Z,87.83
2018-06-15T04:07:51.077Z,87.74
2018-06-15T04:10:19.580Z,87.38
2018-06-15T04:12:48.062Z,87.79
2018-06-15T04:15:20.125Z,87.41
2018-06-15T04:17:52.701Z,87.54
2018-06-15T04:20:21.203Z,87.85
2018-06-15T04:22:49.924Z,87.73
2018-06-15T04:25:18.333Z,87.69
2018-06-15T04:27:46.864Z,87.65
2018-06-15T04:30:15.344Z,87.34
2018-06-15T04:32:43.792Z,87.15
2018-06-15T04:35:12.292Z,87.03
2018-06-15T04:37:40.776Z,87.25
2018-06-15T04:40:09.260Z,87.12
2018-06-15T04:42:37.939Z,87.09
2018-06-15T04:45:06.459Z,86.82
2018-06-15T04:47:34.909Z,86.16
2018-06-15T04:50:03.640Z,86.28
2018-06-15T04:52:32.050Z,86.14
2018-06-15T04:55:00.820Z,85.91
2018-06-15T04:57:29.763Z,85.43
2018-06-15T04:59:58.607Z,85.73
2018-06-15T05:02:27.249Z,85.41
2018-06-15T05:05:35.196Z,85.57
2018-06-15T05:08:03.728Z,85.25
2018-06-15T05:10:42.652Z,84.95
2018-06-15T05:13:11.395Z,84.47
2018-06-15T05:15:39.830Z,84.50
2018-06-15T05:18:08.349Z,84.51
2018-06-15T05:20:36.884Z,84.22
2018-06-15T05:23:06.653Z,83.99
2018-06-15T05:25:35.167Z,84.37
2018-06-15T05:28:03.660Z,84.17
2018-06-15T05:30:32.150Z,84.30
2018-06-15T05:33:00.729Z,85.06
2018-06-15T05:35:29.232Z,84.65
2018-06-15T05:37:58.177Z,84.67
2018-06-15T05:40:26.913Z,84.71
2018-06-15T05:42:55.358Z,84.62
2018-06-15T05:45:23.929Z,84.51
2018-06-15T05:47:52.424Z,84.61
2018-06-15T05:50:20.863Z,84.27
2018-06-15T05:52:49.425Z,83.38
2018-06-15T05:55:18.285Z,83.03
2018-06-15T05:57:46.801Z,83.15
2018-06-15T06:00:15.257Z,82.53
2018-06-15T06:02:43.763Z,82.63
2018-06-15T06:05:13.102Z,82.50
2018-06-15T06:07:41.782Z,82.87
2018-06-15T06:10:10.287Z,82.50
2018-06-15T06:12:38.723Z,81.95
2018-06-15T06:15:11.152Z,81.54
2018-06-15T06:17:39.768Z,81.44
2018-06-15T06:20:09.668Z,81.24
2018-06-15T06:22:59.743Z,81.68
2018-06-15T06:25:28.280Z,81.02
2018-06-15T06:27:56.814Z,80.82
2018-06-15T06:30:25.297Z,80.20
2018-06-15T06:32:54.100Z,80.39
2018-06-15T06:35:23.057Z,79.72
2018-06-15T06:37:51.688Z,78.35
2018-06-15T06:40:20.147Z,78.33
2018-06-15T06:42:48.731Z,78.42
2018-06-15T06:45:19.169Z,78.69
2018-06-15T06:47:47.761Z,77.98
2018-06-15T06:50:16.208Z,77.28
2018-06-15T06:52:44.756Z,77.07
2018-06-15T06:55:13.306Z,76.08
2018-06-15T06:57:43.017Z,75.66
2018-06-15T07:00:11.582Z,75.75
2018-06-15T07:02:40.112Z,75.23
2018-06-15T07:05:08.637Z,75.38
2018-06-15T07:07:37.191Z,75.03
2018-06-15T07:10:05.730Z,75.40
2018-06-15T07:12:34.181Z,75.04
2018-06-15T07:15:02.721Z,74.75
2018-06-15T07:17:31.173Z,74.82
2018-06-15T07:19:59.687Z,74.66
2018-06-15T07:22:28.798Z,75.16
2018-06-15T07:24:57.330Z,75.25
2018-06-15T07:27:27.104Z,75.22
2018-06-15T07:29:55.607Z,74.62
2018-06-15T07:32:24.057Z,73.74
2018-06-15T07:34:52.537Z,73.88
2018-06-15T07:37:21.037Z,73.34
2018-06-15T07:39:49.541Z,73.44
2018-06-15T07:42:18.028Z,72.52
2018-06-15T07:44:46.592Z,72.43
2018-06-15T07:47:15.054Z,71.93
2018-06-15T07:50:11.037Z,72.68
2018-06-15T07:52:39.519Z,72.09
2018-06-15T07:55:07.955Z,71.68
2018-06-15T07:57:36.487Z,71.79
2018-06-15T08:00:05.126Z,71.91
2018-06-15T08:02:41.475Z,71.81
2018-06-15T08:05:09.994Z,71.48
2018-06-15T08:07:38.476Z,71.36
2018-06-15T08:10:06.997Z,70.98
2018-06-15T08:12:35.426Z,70.65
2018-06-15T08:15:03.934Z,70.05
2018-06-15T08:17:32.357Z,70.17
2018-06-15T08:20:28.996Z,69.74
2018-06-15T08:22:57.545Z,68.97
2018-06-15T08:25:25.957Z,68.17
2018-06-15T08:27:54.611Z,67.05
2018-06-15T08:30:23.072Z,66.39
2018-06-15T08:33:32.904Z,65.03
2018-06-15T08:36:01.398Z,64.79
2018-06-15T08:38:29.893Z,64.76
2018-06-15T08:40:58.719Z,64.62
2018-06-15T08:43:27.271Z,63.80
2018-06-15T08:45:55.796Z,63.62
2018-06-15T08:48:24.294Z,63.19
2018-06-15T08:50:52.801Z,62.19
2018-06-15T08:53:21.298Z,62.87
2018-06-15T08:55:49.829Z,61.73
2018-06-15T08:58:18.347Z,61.52
2018-06-15T09:00:47.349Z,61.55
2018-06-15T09:03:15.880Z,61.03
2018-06-15T09:05:44.292Z,61.27
2018-06-15T09:08:12.820Z,61.43
2018-06-15T09:10:41.286Z,61.45
2018-06-15T09:13:10.530Z,61.06
2018-06-15T09:15:39.093Z,60.50
2018-06-15T09:18:07.680Z,59.47
2018-06-15T09:20:37.051Z,59.51
2018-06-15T09:23:05.524Z,59.13
2018-06-15T09:25:33.961Z,60.28
2018-06-15T09:28:02.489Z,60.20
2018-06-15T09:30:31.177Z,60.36
2018-06-15T09:33:01.100Z,59.61
2018-06-15T09:35:29.568Z,59.41
2018-06-15T09:37:58.155Z,59.78
2018-06-15T09:40:26.683Z,59.76
2018-06-15T09:42:55.239Z,59.53
2018-06-15T09:45:23.815Z,58.76
2018-06-15T09:47:52.387Z,58.95
2018-06-15T09:50:31.005Z,57.46
2018-06-15T09:52:59.654Z,58.07
2018-06-15T09:55:28.075Z,58.19
2018-06-15T09:57:56.681Z,58.53
2018-06-15T10:00:30.422Z,58.13
2018-06-15T10:02:58.943Z,58.56
2018-06-15T10:05:27.343Z,59.04
2018-06-15T10:07:55.813Z,58.83
2018-06-15T10:10:24.518Z,58.69
2018-06-15T10:12:53.035Z,58.29
2018-06-15T10:15:21.570Z,57.65
2018-06-15T10:17:50.079Z,56.84
2018-06-15T10:20:18.508Z,55.81
2018-06-15T10:22:47.003Z,56.29
2018-06-15T10:25:15.536Z,55.03
2018-06-15T10:27:44.004Z,54.43
2018-06-15T10:30:12.455Z,53.43
2018-06-15T10:32:40.941Z,53.07
2018-06-15T10:35:09.410Z,51.55
2018-06-15T10:37:38.059Z,51.70
2018-06-15T10:40:06.600Z,50.92
2018-06-15T10:42:35.008Z,50.49
2018-06-15T10:45:03.586Z,50.68
2018-06-15T10:47:32.142Z,51.78
2018-06-15T10:50:00.623Z,52.13
2018-06-15T10:52:29.223Z,52.08
2018-06-15T10:55:36.418Z,52.81
2018-06-15T10:58:05.170Z,51.75
2018-06-15T11:00:33.655Z,49.59
2018-06-15T11:03:02.238Z,48.42
2018-06-15T11:05:36.233Z,47.89
2018-06-15T11:08:04.720Z,47.69
2018-06-15T11:10:33.306Z,47.83
2018-06-15T11:13:01.800Z,48.18
2018-06-15T11:15:30.254Z,47.77
2018-06-15T11:17:58.859Z,47.20
2018-06-15T11:20:27.426Z,46.05
2018-06-15T11:22:55.908Z,44.37
2018-06-15T11:25:24.632Z,42.87
2018-06-15T11:27:53.096Z,42.17
2018-06-15T11:30:21.587Z,41.75
2018-06-15T11:32:50.059Z,42.42
2018-06-15T11:35:18.821Z,41.64
2018-06-15T11:37:47.373Z,40.66
2018-06-15T11:40:15.810Z,40.79
2018-06-15T11:42:44.230Z,42.50
2018-06-15T11:46:01.786Z,41.20
2018-06-15T11:48:30.287Z,41.46
2018-06-15T11:50:58.735Z,39.72
2018-06-15T11:53:27.217Z,39.48
2018-06-15T11:55:55.748Z,39.29
2018-06-15T11:58:24.212Z,39.74
2018-06-15T12:00:52.730Z,39.39
2018-06-15T12:03:21.275Z,40.16
2018-06-15T12:05:49.767Z,40.83
2018-06-15T12:08:44.624Z,39.32
2018-06-15T12:11:13.130Z,40.67
2018-06-15T12:13:41.668Z,41.37
2018-06-15T12:16:10.192Z,41.19
2018-06-15T12:18:38.689Z,38.44
2018-06-15T12:21:07.101Z,37.82
2018-06-15T12:23:35.708Z,37.23
2018-06-15T12:26:04.291Z,37.52
2018-06-15T12:28:32.798Z,37.99
2018-06-15T12:31:01.304Z,36.69
2018-06-15T12:33:29.781Z,38.33
2018-06-15T12:35:58.260Z,39.29
2018-06-15T12:38:26.716Z,38.87
2018-06-15T12:40:56.392Z,39.87
2018-06-15T12:43:24.941Z,40.14
2018-06-15T12:45:53.465Z,37.34
2018-06-15T12:48:21.925Z,38.12
2018-06-15T12:50:50.409Z,36.64
2018-06-15T12:53:19.029Z,36.30
2018-06-15T12:55:48.161Z,37.73
2018-06-15T12:58:16.753Z,37.19
2018-06-15T13:00:45.255Z,35.53
2018-06-15T13:03:13.816Z,34.36
2018-06-15T13:05:42.437Z,34.08
2018-06-15T13:08:11.129Z,35.22
2018-06-15T13:11:14.498Z,35.64
2018-06-15T13:13:43.089Z,34.65
2018-06-15T13:16:11.657Z,36.29
2018-06-15T13:18:40.219Z,37.49
2018-06-15T13:21:08.697Z,37.60
2018-06-15T13:23:37.639Z,35.56
2018-06-15T13:26:06.408Z,34.25
2018-06-15T13:29:24.301Z,34.45
2018-06-15T13:31:52.809Z,33.69
2018-06-15T13:34:21.299Z,33.15
2018-06-15T13:36:49.813Z,34.17
2018-06-15T13:39:18.359Z,33.31
2018-06-15T13:41:47.644Z,33.40
2018-06-15T13:44:16.260Z,33.37
2018-06-15T13:46:44.829Z,34.10
2018-06-15T13:49:13.396Z,34.14
2018-06-15T13:51:41.984Z,36.02
2018-06-15T13:54:13.850Z,34.90
2018-06-15T13:56:42.347Z,34.01
2018-06-15T13:59:20.125Z,33.25
2018-06-15T14:01:48.626Z,34.33
2018-06-15T14:04:17.192Z,34.04
2018-06-15T14:06:45.672Z,34.15
2018-06-15T14:09:14.113Z,34.82
2018-06-15T14:11:42.713Z,34.78
2018-06-15T14:14:11.235Z,33.12
2018-06-15T14:16:39.689Z,33.44
2018-06-15T14:19:08.280Z,33.63
2018-06-15T14:21:36.770Z,33.33
2018-06-15T14:24:05.445Z,33.77
2018-06-15T14:26:36.212Z,33.95
2018-06-15T14:29:04.776Z,34.52
2018-06-15T14:31:39.074Z,33.17
2018-06-15T14:34:07.608Z,32.17
2018-06-15T14:36:36.157Z,32.75
2018-06-15T14:39:07.199Z,33.28
2018-06-15T14:41:35.771Z,32.83
2018-06-15T14:44:04.466Z,33.08
2018-06-15T14:46:32.929Z,33.58
2018-06-15T14:49:01.418Z,32.83
2018-06-15T14:51:29.904Z,32.09
2018-06-15T14:53:58.513Z,32.53
2018-06-15T14:56:26.941Z,32.79
2018-06-15T14:59:00.193Z,32.85
2018-06-15T15:01:28.736Z,32.71
2018-06-15T15:03:57.159Z,32.75
2018-06-15T15:06:25.719Z,32.52
2018-06-15T15:08:54.686Z,33.13
2018-06-15T15:11:52.182Z,31.84
2018-06-15T15:14:20.625Z,32.58
2018-06-15T15:16:49.180Z,31.85
2018-06-15T15:19:17.653Z,32.11
2018-06-15T15:21:46.109Z,32.07
2018-06-15T15:24:14.786Z,31.30
2018-06-15T15:26:43.248Z,31.52
2018-06-15T15:29:11.935Z,31.82
2018-06-15T15:31:40.725Z,32.05
2018-06-15T15:34:09.396Z,33.10
2018-06-15T15:36:37.864Z,33.50
2018-06-15T15:39:08.711Z,33.56
2018-06-15T15:41:37.243Z,33.24
2018-06-15T15:44:06.205Z,33.87
2018-06-15T15:46:34.675Z,33.50
2018-06-15T15:49:03.227Z,34.22
2018-06-15T15:51:31.729Z,34.91
2018-06-15T15:54:00.290Z,34.18
2018-06-15T15:56:28.913Z,33.48
2018-06-15T15:58:57.596Z,33.20
2018-06-15T16:01:26.040Z,33.74
2018-06-15T16:04:05.717Z,34.07
2018-06-15T16:06:41.464Z,34.12
2018-06-15T16:09:20.579Z,33.67
2018-06-15T16:11:49.093Z,33.11
2018-06-15T16:14:17.656Z,32.95
2018-06-15T16:16:46.154Z,32.76
2018-06-15T16:19:14.876Z,32.33
2018-06-15T16:22:14.460Z,32.58
2018-06-15T16:24:43.002Z,32.47
2018-06-15T16:27:11.517Z,32.86
2018-06-15T16:29:40.189Z,32.51
2018-06-15T16:32:09.271Z,33.56
2018-06-15T16:34:38.979Z,33.24
2018-06-15T16:37:07.459Z,33.41
2018-06-15T16:39:36.200Z,33.19
2018-06-15T16:42:04.780Z,33.43
2018-06-15T16:44:33.445Z,33.58
2018-06-15T16:47:02.003Z,34.74
2018-06-15T16:49:41.045Z,34.29
2018-06-15T16:52:09.623Z,33.79
2018-06-15T16:54:38.115Z,34.24
2018-06-15T16:57:06.715Z,33.75
2018-06-15T16:59:35.164Z,33.91
2018-06-15T17:02:03.666Z,34.29
2018-06-15T17:04:32.176Z,34.95
2018-06-15T17:07:00.738Z,35.40
2018-06-15T17:09:29.177Z,34.73
2018-06-15T17:11:57.674Z,33.97
2018-06-15T17:14:26.318Z,33.61
2018-06-15T17:16:54.781Z,34.63
2018-06-15T17:19:27.163Z,34.89
2018-06-15T17:21:55.752Z,34.32
2018-06-15T17:24:24.324Z,34.35
2018-06-15T17:26:52.902Z,34.53
2018-06-15T17:29:21.473Z,33.57
2018-06-15T17:31:53.910Z,33.84
2018-06-15T17:34:22.328Z,33.92
2018-06-15T17:36:50.897Z,34.22
2018-06-15T17:39:19.354Z,34.56
2018-06-15T17:41:48.525Z,33.99
2018-06-15T17:44:17.239Z,34.13
2018-06-15T17:46:45.743Z,34.47
2018-06-15T17:49:14.232Z,33.86
2018-06-15T17:51:42.698Z,34.95
2018-06-15T17:54:11.162Z,35.47
2018-06-15T17:57:10.556Z,36.07
2018-06-15T17:59:39.104Z,35.19
2018-06-15T18:02:08.460Z,34.59
2018-06-15T18:04:36.997Z,35.57
2018-06-15T18:07:05.769Z,35.83
2018-06-15T18:09:42.100Z,35.63
2018-06-15T18:12:10.646Z,35.44
2018-06-15T18:14:39.913Z,34.87
2018-06-15T18:17:08.364Z,35.87
2018-06-15T18:19:36.943Z,36.34
2018-06-15T18:22:05.477Z,36.15
2018-06-15T18:24:34.026Z,36.25
2018-06-15T18:27:03.124Z,36.20
2018-06-15T18:29:32.520Z,36.95
2018-06-15T18:32:01.309Z,38.11
2018-06-15T18:34:29.795Z,37.46
2018-06-15T18:36:58.300Z,37.47
2018-06-15T18:39:26.966Z,37.04
2018-06-15T18:41:55.623Z,36.83
2018-06-15T18:44:24.187Z,36.45
2018-06-15T18:46:52.656Z,38.50
2018-06-15T18:49:21.089Z,38.68
2018-06-15T18:51:49.769Z,39.39
2018-06-15T18:54:19.472Z,40.57
2018-06-15T18:56:47.972Z,39.63
2018-06-15T18:59:16.436Z,39.71
2018-06-15T19:01:45.022Z,41.71
2018-06-15T19:04:13.533Z,43.56
2018-06-15T19:06:42.085Z,45.46
2018-06-15T19:09:11.643Z,45.58
2018-06-15T19:11:40.221Z,46.88
2018-06-15T19:14:08.736Z,48.52
2018-06-15T19:16:37.243Z,48.99
2018-06-15T19:19:05.930Z,48.84
2018-06-15T19:21:34.420Z,48.89
2018-06-15T19:24:03.006Z,50.89
2018-06-15T19:26:31.895Z,50.39
2018-06-15T19:29:00.413Z,50.81
2018-06-15T19:31:28.979Z,50.80
2018-06-15T19:33:57.607Z,51.97
2018-06-15T19:36:26.156Z,53.82
2018-06-15T19:38:54.634Z,53.51
2018-06-15T19:41:23.286Z,53.97
2018-06-15T19:43:51.761Z,53.64
2018-06-15T19:46:20.255Z,55.66
2018-06-15T19:48:48.958Z,56.34
2018-06-15T19:51:17.425Z,56.09
2018-06-15T19:53:45.904Z,56.63
2018-06-15T19:56:14.416Z,56.47
2018-06-15T19:58:43.052Z,56.93
2018-06-15T20:01:11.548Z,57.60
2018-06-15T20:03:40.005Z,58.26
2018-06-15T20:06:09.102Z,59.74
2018-06-15T23:02:58.028Z,73.71
2018-06-15T23:05:27.494Z,73.94
2018-06-15T23:07:56.080Z,73.98
2018-06-15T23:10:24.579Z,74.21
2018-06-15T23:12:53.275Z,74.64
2018-06-15T23:15:21.733Z,74.28
2018-06-15T23:17:50.207Z,74.34
2018-06-15T23:20:18.702Z,74.72
2018-06-15T23:22:47.933Z,74.96
2018-06-15T23:25:16.798Z,74.94
2018-06-15T23:27:45.264Z,74.66
2018-06-15T23:30:13.693Z,74.69
2018-06-15T23:32:42.233Z,74.95
2018-06-15T23:35:10.709Z,75.18
2018-06-15T23:37:39.259Z,75.41
2018-06-15T23:40:07.695Z,75.83
2018-06-15T23:42:36.177Z,75.47
2018-06-15T23:45:04.645Z,76.07
2018-06-15T23:47:33.128Z,75.61
2018-06-15T23:50:01.820Z,75.79
2018-06-15T23:52:30.313Z,76.06
2018-06-15T23:54:58.777Z,75.92
2018-06-15T23:57:27.269Z,76.32
2018-06-15T23:59:55.841Z,75.57
